sensor_id;sensor_type;location;lat;lon;timestamp;pressure;altitude;pressure_sealevel;temperature;humidity
70027;BME280;57506;50.092;15.804;2023-02-05T00:01:56;101169.09;;;-2.35;80.94
70027;BME280;57506;50.092;15.804;2023-02-05T00:04:21;101160.44;;;-2.38;79.96
70027;BME280;57506;50.092;15.804;2023-02-05T00:06:47;101149.31;;;-2.45;79.98
70027;BME280;57506;50.092;15.804;2023-02-05T00:09:13;101172.84;;;-2.40;81.40
70027;BME280;57506;50.092;15.804;2023-02-05T00:11:39;101175.03;;;-2.50;82.38
70027;BME280;57506;50.092;15.804;2023-02-05T00:14:04;101163.66;;;-2.74;85.92
70027;BME280;57506;50.092;15.804;2023-02-05T00:16:33;101172.44;;;-2.95;89.18
70027;BME280;57506;50.092;15.804;2023-02-05T00:18:59;101166.16;;;-3.14;90.31
70027;BME280;57506;50.092;15.804;2023-02-05T00:21:25;101172.31;;;-3.14;91.49
70027;BME280;57506;50.092;15.804;2023-02-05T00:23:52;101170.22;;;-3.06;93.26
70027;BME280;57506;50.092;15.804;2023-02-05T00:26:18;101179.78;;;-3.03;93.82
70027;BME280;57506;50.092;15.804;2023-02-05T00:28:44;101175.44;;;-3.04;94.71
70027;BME280;57506;50.092;15.804;2023-02-05T00:31:17;101181.22;;;-2.95;93.34
70027;BME280;57506;50.092;15.804;2023-02-05T00:33:44;101170.84;;;-2.99;92.57
70027;BME280;57506;50.092;15.804;2023-02-05T00:36:11;101164.81;;;-3.03;93.88
70027;BME280;57506;50.092;15.804;2023-02-05T00:38:37;101169.81;;;-2.95;92.83
70027;BME280;57506;50.092;15.804;2023-02-05T00:41:03;101173.25;;;-2.93;92.00
70027;BME280;57506;50.092;15.804;2023-02-05T00:43:29;101157.03;;;-3.06;91.96
70027;BME280;57506;50.092;15.804;2023-02-05T00:45:55;101178.09;;;-2.83;91.01
70027;BME280;57506;50.092;15.804;2023-02-05T00:48:20;101167.28;;;-2.98;91.13
70027;BME280;57506;50.092;15.804;2023-02-05T00:50:48;101177.63;;;-2.92;91.24
70027;BME280;57506;50.092;15.804;2023-02-05T00:53:13;101179.50;;;-2.96;90.77
70027;BME280;57506;50.092;15.804;2023-02-05T00:55:39;101180.59;;;-3.01;90.65
70027;BME280;57506;50.092;15.804;2023-02-05T00:58:05;101189.41;;;-3.02;91.02
70027;BME280;57506;50.092;15.804;2023-02-05T01:00:30;101176.34;;;-3.05;91.06
70027;BME280;57506;50.092;15.804;2023-02-05T01:02:56;101176.53;;;-3.10;91.08
70027;BME280;57506;50.092;15.804;2023-02-05T01:05:22;101175.06;;;-3.17;91.94
70027;BME280;57506;50.092;15.804;2023-02-05T01:07:47;101178.22;;;-3.31;93.15
70027;BME280;57506;50.092;15.804;2023-02-05T01:10:13;101168.41;;;-3.27;93.58
70027;BME280;57506;50.092;15.804;2023-02-05T01:12:39;101181.53;;;-3.26;93.65
70027;BME280;57506;50.092;15.804;2023-02-05T01:15:06;101149.75;;;-3.44;94.62
70027;BME280;57506;50.092;15.804;2023-02-05T01:17:32;101160.09;;;-3.40;94.18
70027;BME280;57506;50.092;15.804;2023-02-05T01:19:57;101165.97;;;-3.57;96.51
70027;BME280;57506;50.092;15.804;2023-02-05T01:22:23;101148.28;;;-3.76;98.24
70027;BME280;57506;50.092;15.804;2023-02-05T01:24:48;101160.25;;;-3.68;98.52
70027;BME280;57506;50.092;15.804;2023-02-05T01:27:14;101151.44;;;-3.90;100.00
70027;BME280;57506;50.092;15.804;2023-02-05T01:29:39;101162.00;;;-3.92;100.00
70027;BME280;57506;50.092;15.804;2023-02-05T01:32:05;101161.22;;;-3.94;100.00
70027;BME280;57506;50.092;15.804;2023-02-05T01:34:30;101164.84;;;-3.98;100.00
70027;BME280;57506;50.092;15.804;2023-02-05T01:36:56;101158.94;;;-4.04;100.00
70027;BME280;57506;50.092;15.804;2023-02-05T01:39:21;101165.50;;;-4.16;100.00
70027;BME280;57506;50.092;15.804;2023-02-05T01:41:47;101167.63;;;-4.27;100.00
70027;BME280;57506;50.092;15.804;2023-02-05T01:44:17;101177.59;;;-4.63;100.00
70027;BME280;57506;50.092;15.804;2023-02-05T01:46:46;101170.50;;;-4.87;100.00
70027;BME280;57506;50.092;15.804;2023-02-05T01:49:29;101167.78;;;-4.86;100.00
70027;BME280;57506;50.092;15.804;2023-02-05T01:52:00;101152.78;;;-4.82;100.00
70027;BME280;57506;50.092;15.804;2023-02-05T01:54:30;101174.41;;;-4.73;100.00
70027;BME280;57506;50.092;15.804;2023-02-05T01:57:05;101163.09;;;-4.75;100.00
70027;BME280;57506;50.092;15.804;2023-02-05T01:59:35;101159.53;;;-4.74;100.00
70027;BME280;57506;50.092;15.804;2023-02-05T02:02:02;101164.09;;;-4.52;100.00
70027;BME280;57506;50.092;15.804;2023-02-05T02:04:40;101155.28;;;-4.25;100.00
70027;BME280;57506;50.092;15.804;2023-02-05T02:07:10;101160.59;;;-4.27;100.00
70027;BME280;57506;50.092;15.804;2023-02-05T02:09:37;101139.63;;;-4.30;100.00
70027;BME280;57506;50.092;15.804;2023-02-05T02:12:04;101151.75;;;-4.24;100.00
70027;BME280;57506;50.092;15.804;2023-02-05T02:14:31;101147.59;;;-4.31;100.00
70027;BME280;57506;50.092;15.804;2023-02-05T02:16:59;101142.03;;;-4.22;100.00
70027;BME280;57506;50.092;15.804;2023-02-05T02:22:28;101140.69;;;-4.35;100.00
70027;BME280;57506;50.092;15.804;2023-02-05T02:27:55;101145.25;;;-4.67;100.00
70027;BME280;57506;50.092;15.804;2023-02-05T02:30:43;101146.22;;;-4.69;100.00
70027;BME280;57506;50.092;15.804;2023-02-05T02:33:33;101154.06;;;-4.68;100.00
70027;BME280;57506;50.092;15.804;2023-02-05T02:36:08;101138.00;;;-4.59;100.00
70027;BME280;57506;50.092;15.804;2023-02-05T02:38:43;101151.59;;;-4.46;100.00
70027;BME280;57506;50.092;15.804;2023-02-05T02:41:26;101154.22;;;-4.46;100.00
70027;BME280;57506;50.092;15.804;2023-02-05T02:43:58;101149.00;;;-4.47;100.00
70027;BME280;57506;50.092;15.804;2023-02-05T02:46:40;101138.69;;;-4.53;100.00
70027;BME280;57506;50.092;15.804;2023-02-05T02:49:12;101144.06;;;-4.56;100.00
70027;BME280;57506;50.092;15.804;2023-02-05T02:51:41;101139.72;;;-4.57;100.00
70027;BME280;57506;50.092;15.804;2023-02-05T02:54:11;101140.81;;;-4.65;100.00
70027;BME280;57506;50.092;15.804;2023-02-05T02:56:39;101140.63;;;-4.59;100.00
70027;BME280;57506;50.092;15.804;2023-02-05T02:59:09;101134.56;;;-4.61;100.00
70027;BME280;57506;50.092;15.804;2023-02-05T03:01:37;101135.66;;;-4.41;100.00
70027;BME280;57506;50.092;15.804;2023-02-05T03:04:17;101124.81;;;-4.32;100.00
70027;BME280;57506;50.092;15.804;2023-02-05T03:06:47;101128.06;;;-4.24;100.00
70027;BME280;57506;50.092;15.804;2023-02-05T03:09:31;101099.31;;;-4.55;100.00
70027;BME280;57506;50.092;15.804;2023-02-05T03:11:59;101100.94;;;-4.52;100.00
70027;BME280;57506;50.092;15.804;2023-02-05T03:14:25;101103.69;;;-4.55;100.00
70027;BME280;57506;50.092;15.804;2023-02-05T03:16:51;101103.94;;;-4.63;100.00
70027;BME280;57506;50.092;15.804;2023-02-05T03:19:18;101114.59;;;-4.68;100.00
70027;BME280;57506;50.092;15.804;2023-02-05T03:21:50;101099.34;;;-4.83;100.00
70027;BME280;57506;50.092;15.804;2023-02-05T03:24:18;101104.69;;;-4.86;100.00
70027;BME280;57506;50.092;15.804;2023-02-05T03:26:44;101111.34;;;-5.02;100.00
70027;BME280;57506;50.092;15.804;2023-02-05T03:29:16;101101.13;;;-5.11;100.00
70027;BME280;57506;50.092;15.804;2023-02-05T03:31:56;101115.06;;;-5.08;100.00
70027;BME280;57506;50.092;15.804;2023-02-05T03:42:33;101108.69;;;-5.01;100.00
70027;BME280;57506;50.092;15.804;2023-02-05T03:45:21;101113.88;;;-4.99;100.00
70027;BME280;57506;50.092;15.804;2023-02-05T03:47:59;101110.25;;;-4.95;100.00
70027;BME280;57506;50.092;15.804;2023-02-05T03:50:31;101099.03;;;-5.00;100.00
70027;BME280;57506;50.092;15.804;2023-02-05T03:53:25;101106.09;;;-5.02;100.00
70027;BME280;57506;50.092;15.804;2023-02-05T03:56:02;101094.66;;;-5.01;100.00
70027;BME280;57506;50.092;15.804;2023-02-05T03:58:41;101097.03;;;-4.92;100.00
70027;BME280;57506;50.092;15.804;2023-02-05T04:01:09;101084.16;;;-5.01;100.00
70027;BME280;57506;50.092;15.804;2023-02-05T04:03:36;101098.03;;;-4.96;100.00
70027;BME280;57506;50.092;15.804;2023-02-05T04:06:02;101105.69;;;-4.88;100.00
70027;BME280;57506;50.092;15.804;2023-02-05T04:08:28;101113.34;;;-4.82;100.00
70027;BME280;57506;50.092;15.804;2023-02-05T04:10:53;101116.56;;;-4.73;100.00
70027;BME280;57506;50.092;15.804;2023-02-05T04:13:19;101119.81;;;-4.66;100.00
70027;BME280;57506;50.092;15.804;2023-02-05T04:15:47;101116.22;;;-4.64;100.00
70027;BME280;57506;50.092;15.804;2023-02-05T04:18:13;101095.28;;;-4.67;100.00
70027;BME280;57506;50.092;15.804;2023-02-05T04:20:38;101099.94;;;-4.48;100.00
70027;BME280;57506;50.092;15.804;2023-02-05T04:23:04;101112.22;;;-4.49;100.00
70027;BME280;57506;50.092;15.804;2023-02-05T04:25:29;101105.00;;;-4.42;100.00
70027;BME280;57506;50.092;15.804;2023-02-05T04:27:54;101103.63;;;-4.54;100.00
70027;BME280;57506;50.092;15.804;2023-02-05T04:30:20;101118.63;;;-4.56;100.00
70027;BME280;57506;50.092;15.804;2023-02-05T04:32:45;101125.91;;;-4.64;100.00
70027;BME280;57506;50.092;15.804;2023-02-05T04:35:11;101102.78;;;-4.81;100.00
70027;BME280;57506;50.092;15.804;2023-02-05T04:37:36;101134.97;;;-4.73;100.00
70027;BME280;57506;50.092;15.804;2023-02-05T04:40:02;101130.59;;;-5.02;100.00
70027;BME280;57506;50.092;15.804;2023-02-05T04:42:28;101140.22;;;-5.01;100.00
70027;BME280;57506;50.092;15.804;2023-02-05T04:44:53;101141.44;;;-5.11;100.00
70027;BME280;57506;50.092;15.804;2023-02-05T04:47:19;101133.97;;;-5.24;100.00
70027;BME280;57506;50.092;15.804;2023-02-05T04:49:44;101159.66;;;-5.05;100.00
70027;BME280;57506;50.092;15.804;2023-02-05T04:52:10;101165.69;;;-5.03;100.00
70027;BME280;57506;50.092;15.804;2023-02-05T04:54:36;101164.88;;;-5.03;100.00
70027;BME280;57506;50.092;15.804;2023-02-05T04:57:02;101149.19;;;-5.06;100.00
70027;BME280;57506;50.092;15.804;2023-02-05T04:59:28;101143.84;;;-5.03;100.00
70027;BME280;57506;50.092;15.804;2023-02-05T05:01:59;101160.94;;;-4.90;100.00
70027;BME280;57506;50.092;15.804;2023-02-05T05:04:25;101161.75;;;-4.88;100.00
70027;BME280;57506;50.092;15.804;2023-02-05T05:06:50;101173.28;;;-4.66;100.00
70027;BME280;57506;50.092;15.804;2023-02-05T05:09:16;101156.84;;;-4.46;100.00
70027;BME280;57506;50.092;15.804;2023-02-05T05:11:41;101178.97;;;-4.51;100.00
70027;BME280;57506;50.092;15.804;2023-02-05T05:14:07;101176.16;;;-4.45;100.00
70027;BME280;57506;50.092;15.804;2023-02-05T05:16:32;101171.78;;;-4.46;100.00
70027;BME280;57506;50.092;15.804;2023-02-05T05:18:58;101188.13;;;-4.37;100.00
70027;BME280;57506;50.092;15.804;2023-02-05T05:21:23;101177.59;;;-4.37;100.00
70027;BME280;57506;50.092;15.804;2023-02-05T05:23:49;101188.78;;;-4.30;100.00
70027;BME280;57506;50.092;15.804;2023-02-05T05:26:14;101179.38;;;-4.37;100.00
70027;BME280;57506;50.092;15.804;2023-02-05T05:28:40;101183.72;;;-4.36;100.00
70027;BME280;57506;50.092;15.804;2023-02-05T05:33:32;101188.25;;;-4.40;100.00
70027;BME280;57506;50.092;15.804;2023-02-05T05:35:58;101199.72;;;-4.42;100.00
70027;BME280;57506;50.092;15.804;2023-02-05T05:38:24;101194.50;;;-4.44;100.00
70027;BME280;57506;50.092;15.804;2023-02-05T05:40:49;101171.63;;;-4.68;100.00
70027;BME280;57506;50.092;15.804;2023-02-05T05:43:33;101189.88;;;-4.64;100.00
70027;BME280;57506;50.092;15.804;2023-02-05T05:46:11;101202.19;;;-4.64;100.00
70027;BME280;57506;50.092;15.804;2023-02-05T05:48:38;101204.16;;;-4.71;100.00
70027;BME280;57506;50.092;15.804;2023-02-05T05:51:04;101189.69;;;-4.85;100.00
70027;BME280;57506;50.092;15.804;2023-02-05T05:53:30;101204.63;;;-4.86;100.00
70027;BME280;57506;50.092;15.804;2023-02-05T05:55:55;101198.88;;;-4.99;100.00
70027;BME280;57506;50.092;15.804;2023-02-05T05:58:21;101192.91;;;-5.04;100.00
70027;BME280;57506;50.092;15.804;2023-02-05T06:00:46;101205.00;;;-4.98;100.00
70027;BME280;57506;50.092;15.804;2023-02-05T06:03:12;101204.22;;;-5.02;100.00
70027;BME280;57506;50.092;15.804;2023-02-05T06:05:38;101196.50;;;-5.06;100.00
70027;BME280;57506;50.092;15.804;2023-02-05T06:08:03;101192.41;;;-5.16;100.00
70027;BME280;57506;50.092;15.804;2023-02-05T06:10:29;101197.63;;;-5.15;100.00
70027;BME280;57506;50.092;15.804;2023-02-05T06:12:56;101194.28;;;-5.20;100.00
70027;BME280;57506;50.092;15.804;2023-02-05T06:15:22;101209.72;;;-5.39;100.00
70027;BME280;57506;50.092;15.804;2023-02-05T06:17:47;101215.06;;;-5.42;100.00
70027;BME280;57506;50.092;15.804;2023-02-05T06:20:13;101213.47;;;-5.47;100.00
70027;BME280;57506;50.092;15.804;2023-02-05T06:22:40;101206.47;;;-5.48;100.00
70027;BME280;57506;50.092;15.804;2023-02-05T06:25:06;101199.47;;;-5.48;100.00
70027;BME280;57506;50.092;15.804;2023-02-05T06:27:32;101194.28;;;-5.51;100.00
70027;BME280;57506;50.092;15.804;2023-02-05T06:29:57;101204.59;;;-5.43;100.00
70027;BME280;57506;50.092;15.804;2023-02-05T06:32:23;101199.03;;;-5.33;100.00
70027;BME280;57506;50.092;15.804;2023-02-05T06:34:48;101207.22;;;-5.14;100.00
70027;BME280;57506;50.092;15.804;2023-02-05T06:37:14;101198.56;;;-5.17;100.00
70027;BME280;57506;50.092;15.804;2023-02-05T06:39:39;101197.50;;;-5.40;100.00
70027;BME280;57506;50.092;15.804;2023-02-05T06:42:05;101209.00;;;-5.44;100.00
70027;BME280;57506;50.092;15.804;2023-02-05T06:44:31;101193.44;;;-5.51;100.00
70027;BME280;57506;50.092;15.804;2023-02-05T06:46:57;101202.09;;;-5.48;100.00
70027;BME280;57506;50.092;15.804;2023-02-05T06:49:23;101201.16;;;-5.45;100.00
70027;BME280;57506;50.092;15.804;2023-02-05T06:51:49;101182.19;;;-5.55;100.00
70027;BME280;57506;50.092;15.804;2023-02-05T06:54:14;101183.06;;;-5.56;100.00
70027;BME280;57506;50.092;15.804;2023-02-05T06:56:40;101196.91;;;-5.51;100.00
70027;BME280;57506;50.092;15.804;2023-02-05T06:59:05;101197.75;;;-5.49;100.00
70027;BME280;57506;50.092;15.804;2023-02-05T07:01:31;101208.09;;;-5.43;100.00
70027;BME280;57506;50.092;15.804;2023-02-05T07:03:57;101209.00;;;-5.44;100.00
70027;BME280;57506;50.092;15.804;2023-02-05T07:06:23;101203.66;;;-5.41;100.00
70027;BME280;57506;50.092;15.804;2023-02-05T07:08:49;101202.72;;;-5.38;100.00
70027;BME280;57506;50.092;15.804;2023-02-05T07:11:15;101205.88;;;-5.27;100.00
70027;BME280;57506;50.092;15.804;2023-02-05T07:13:41;101217.25;;;-5.26;100.00
70027;BME280;57506;50.092;15.804;2023-02-05T07:16:07;101225.03;;;-5.23;100.00
70027;BME280;57506;50.092;15.804;2023-02-05T07:18:33;101228.34;;;-5.17;100.00
70027;BME280;57506;50.092;15.804;2023-02-05T07:20:59;101225.31;;;-5.03;100.00
70027;BME280;57506;50.092;15.804;2023-02-05T07:23:25;101218.06;;;-4.95;100.00
70027;BME280;57506;50.092;15.804;2023-02-05T07:25:50;101209.31;;;-4.96;100.00
70027;BME280;57506;50.092;15.804;2023-02-05T07:28:16;101205.78;;;-4.95;100.00
70027;BME280;57506;50.092;15.804;2023-02-05T07:30:41;101223.72;;;-4.79;100.00
70027;BME280;57506;50.092;15.804;2023-02-05T07:33:07;101207.06;;;-4.80;100.00
70027;BME280;57506;50.092;15.804;2023-02-05T07:35:36;101222.38;;;-4.65;100.00
70027;BME280;57506;50.092;15.804;2023-02-05T07:38:01;101224.81;;;-4.59;100.00
70027;BME280;57506;50.092;15.804;2023-02-05T07:40:27;101233.31;;;-4.50;100.00
70027;BME280;57506;50.092;15.804;2023-02-05T07:42:52;101220.00;;;-4.46;100.00
70027;BME280;57506;50.092;15.804;2023-02-05T07:45:18;101222.41;;;-4.38;100.00
70027;BME280;57506;50.092;15.804;2023-02-05T07:47:44;101233.13;;;-4.18;100.00
70027;BME280;57506;50.092;15.804;2023-02-05T07:50:09;101224.34;;;-4.18;100.00
70027;BME280;57506;50.092;15.804;2023-02-05T07:52:35;101251.00;;;-4.01;100.00
70027;BME280;57506;50.092;15.804;2023-02-05T07:55:00;101245.47;;;-3.94;100.00
70027;BME280;57506;50.092;15.804;2023-02-05T07:57:26;101249.75;;;-3.90;100.00
70027;BME280;57506;50.092;15.804;2023-02-05T07:59:51;101233.00;;;-3.89;100.00
70027;BME280;57506;50.092;15.804;2023-02-05T08:02:17;101250.97;;;-3.75;100.00
70027;BME280;57506;50.092;15.804;2023-02-05T08:04:43;101250.59;;;-3.64;100.00
70027;BME280;57506;50.092;15.804;2023-02-05T08:07:12;101242.59;;;-3.61;100.00
70027;BME280;57506;50.092;15.804;2023-02-05T08:09:37;101244.56;;;-3.43;100.00
70027;BME280;57506;50.092;15.804;2023-02-05T08:12:03;101248.78;;;-3.39;100.00
70027;BME280;57506;50.092;15.804;2023-02-05T08:14:29;101239.66;;;-3.54;100.00
70027;BME280;57506;50.092;15.804;2023-02-05T08:16:56;101231.13;;;-3.60;100.00
70027;BME280;57506;50.092;15.804;2023-02-05T08:19:23;101236.16;;;-3.54;100.00
70027;BME280;57506;50.092;15.804;2023-02-05T08:21:49;101269.03;;;-3.39;100.00
70027;BME280;57506;50.092;15.804;2023-02-05T08:24:15;101265.16;;;-3.29;100.00
70027;BME280;57506;50.092;15.804;2023-02-05T08:26:40;101246.28;;;-3.42;100.00
70027;BME280;57506;50.092;15.804;2023-02-05T08:29:06;101263.59;;;-3.35;100.00
70027;BME280;57506;50.092;15.804;2023-02-05T08:31:33;101247.66;;;-3.32;100.00
70027;BME280;57506;50.092;15.804;2023-02-05T08:33:59;101255.13;;;-3.20;100.00
70027;BME280;57506;50.092;15.804;2023-02-05T08:36:25;101246.28;;;-3.19;100.00
70027;BME280;57506;50.092;15.804;2023-02-05T08:38:51;101263.22;;;-3.01;100.00
70027;BME280;57506;50.092;15.804;2023-02-05T08:41:16;101256.81;;;-2.94;100.00
70027;BME280;57506;50.092;15.804;2023-02-05T08:43:44;101247.84;;;-2.90;100.00
70027;BME280;57506;50.092;15.804;2023-02-05T08:46:12;101243.31;;;-2.86;100.00
70027;BME280;57506;50.092;15.804;2023-02-05T08:48:38;101248.63;;;-2.64;100.00
70027;BME280;57506;50.092;15.804;2023-02-05T08:51:04;101250.59;;;-2.48;97.49
70027;BME280;57506;50.092;15.804;2023-02-05T08:53:31;101249.56;;;-2.43;97.98
70027;BME280;57506;50.092;15.804;2023-02-05T08:55:58;101224.44;;;-2.54;98.70
70027;BME280;57506;50.092;15.804;2023-02-05T08:58:25;101244.56;;;-2.51;96.83
70027;BME280;57506;50.092;15.804;2023-02-05T09:00:51;101234.03;;;-2.29;94.27
70027;BME280;57506;50.092;15.804;2023-02-05T09:03:17;101241.63;;;-2.22;93.12
70027;BME280;57506;50.092;15.804;2023-02-05T09:05:43;101228.19;;;-2.37;92.41
70027;BME280;57506;50.092;15.804;2023-02-05T09:08:09;101248.72;;;-2.24;94.02
70027;BME280;57506;50.092;15.804;2023-02-05T09:10:34;101234.63;;;-2.23;93.59
70027;BME280;57506;50.092;15.804;2023-02-05T09:13:00;101236.16;;;-2.17;92.57
70027;BME280;57506;50.092;15.804;2023-02-05T09:15:26;101235.97;;;-2.13;92.59
70027;BME280;57506;50.092;15.804;2023-02-05T09:17:51;101227.72;;;-2.27;89.80
70027;BME280;57506;50.092;15.804;2023-02-05T09:20:17;101243.91;;;-2.13;88.71
70027;BME280;57506;50.092;15.804;2023-02-05T09:22:42;101244.81;;;-2.14;90.66
70027;BME280;57506;50.092;15.804;2023-02-05T09:25:08;101231.03;;;-2.00;90.14
70027;BME280;57506;50.092;15.804;2023-02-05T09:27:34;101229.66;;;-2.10;87.29
70027;BME280;57506;50.092;15.804;2023-02-05T09:30:00;101232.81;;;-2.00;85.75
70027;BME280;57506;50.092;15.804;2023-02-05T09:32:25;101235.66;;;-1.85;84.59
70027;BME280;57506;50.092;15.804;2023-02-05T09:34:51;101230.50;;;-1.88;84.67
70027;BME280;57506;50.092;15.804;2023-02-05T09:37:17;101235.00;;;-1.69;85.11
70027;BME280;57506;50.092;15.804;2023-02-05T09:39:42;101237.97;;;-1.77;83.56
70027;BME280;57506;50.092;15.804;2023-02-05T09:42:32;101232.34;;;-1.90;83.78
70027;BME280;57506;50.092;15.804;2023-02-05T09:45:15;101233.09;;;-1.86;86.95
70027;BME280;57506;50.092;15.804;2023-02-05T09:50:24;101224.44;;;-1.69;81.77
70027;BME280;57506;50.092;15.804;2023-02-05T09:52:58;101223.50;;;-1.68;83.05
70027;BME280;57506;50.092;15.804;2023-02-05T09:55:28;101205.50;;;-1.60;83.95
70027;BME280;57506;50.092;15.804;2023-02-05T09:57:58;101213.13;;;-1.53;83.56
70027;BME280;57506;50.092;15.804;2023-02-05T10:00:32;101195.47;;;-1.52;83.90
70027;BME280;57506;50.092;15.804;2023-02-05T10:03:58;101207.63;;;-1.48;82.94
70027;BME280;57506;50.092;15.804;2023-02-05T10:06:31;101199.47;;;-1.44;84.29
70027;BME280;57506;50.092;15.804;2023-02-05T10:22:28;101176.97;;;-1.52;84.61
70027;BME280;57506;50.092;15.804;2023-02-05T10:30:55;101167.75;;;-1.25;86.32
70027;BME280;57506;50.092;15.804;2023-02-05T10:33:51;101178.16;;;-1.01;83.50
70027;BME280;57506;50.092;15.804;2023-02-05T10:36:25;101166.25;;;-1.12;82.18
70027;BME280;57506;50.092;15.804;2023-02-05T10:38:56;101154.41;;;-1.22;82.71
70027;BME280;57506;50.092;15.804;2023-02-05T10:41:34;101147.84;;;-1.32;83.20
70027;BME280;57506;50.092;15.804;2023-02-05T10:46:46;101163.91;;;-1.18;80.33
70027;BME280;57506;50.092;15.804;2023-02-05T10:49:22;101147.97;;;-1.16;85.97
70027;BME280;57506;50.092;15.804;2023-02-05T10:51:49;101144.03;;;-1.08;78.61
70027;BME280;57506;50.092;15.804;2023-02-05T10:54:35;101159.03;;;-1.08;82.74
70027;BME280;57506;50.092;15.804;2023-02-05T10:57:01;101155.75;;;-1.13;83.26
70027;BME280;57506;50.092;15.804;2023-02-05T10:59:32;101149.91;;;-1.01;82.49
70027;BME280;57506;50.092;15.804;2023-02-05T11:02:03;101150.31;;;-0.91;79.69
70027;BME280;57506;50.092;15.804;2023-02-05T11:04:43;101142.50;;;-0.94;80.31
70027;BME280;57506;50.092;15.804;2023-02-05T11:07:22;101127.13;;;-0.86;81.36
70027;BME280;57506;50.092;15.804;2023-02-05T11:09:49;101128.41;;;-0.95;80.35
70027;BME280;57506;50.092;15.804;2023-02-05T11:12:28;101138.38;;;-0.81;80.41
70027;BME280;57506;50.092;15.804;2023-02-05T11:15:00;101132.75;;;-0.75;77.34
70027;BME280;57506;50.092;15.804;2023-02-05T11:17:34;101134.41;;;-0.73;75.30
70027;BME280;57506;50.092;15.804;2023-02-05T11:20:22;101126.53;;;-0.74;73.35
70027;BME280;57506;50.092;15.804;2023-02-05T11:23:24;101118.66;;;-0.76;79.51
70027;BME280;57506;50.092;15.804;2023-02-05T11:25:53;101101.53;;;-0.86;78.26
70027;BME280;57506;50.092;15.804;2023-02-05T11:28:28;101124.53;;;-0.69;74.45
70027;BME280;57506;50.092;15.804;2023-02-05T11:30:54;101125.13;;;-0.64;70.78
70027;BME280;57506;50.092;15.804;2023-02-05T11:35:58;101120.94;;;-0.68;70.32
70027;BME280;57506;50.092;15.804;2023-02-05T11:40:56;101125.63;;;-0.56;71.24
70027;BME280;57506;50.092;15.804;2023-02-05T11:45:58;101132.66;;;-0.55;73.47
70027;BME280;57506;50.092;15.804;2023-02-05T11:48:30;101142.34;;;-0.37;72.74
70027;BME280;57506;50.092;15.804;2023-02-05T11:50:57;101127.19;;;-0.52;71.34
70027;BME280;57506;50.092;15.804;2023-02-05T11:53:24;101121.41;;;-0.60;70.76
70027;BME280;57506;50.092;15.804;2023-02-05T11:55:59;101117.97;;;-0.62;72.16
70027;BME280;57506;50.092;15.804;2023-02-05T11:58:30;101120.63;;;-0.62;70.88
70027;BME280;57506;50.092;15.804;2023-02-05T12:01:19;101125.50;;;-0.53;68.41
70027;BME280;57506;50.092;15.804;2023-02-05T12:03:56;101130.31;;;-0.44;67.24
70027;BME280;57506;50.092;15.804;2023-02-05T12:06:27;101134.44;;;-0.55;66.24
70027;BME280;57506;50.092;15.804;2023-02-05T12:08:54;101105.75;;;-0.64;65.78
70027;BME280;57506;50.092;15.804;2023-02-05T12:33:01;101092.16;;;-0.40;63.89
70027;BME280;57506;50.092;15.804;2023-02-05T12:35:54;101115.34;;;-0.10;65.65
70027;BME280;57506;50.092;15.804;2023-02-05T12:38:46;101125.16;;;-0.29;62.61
70027;BME280;57506;50.092;15.804;2023-02-05T12:43:47;101111.56;;;-0.22;63.19
70027;BME280;57506;50.092;15.804;2023-02-05T12:46:44;101107.19;;;-0.23;62.02
70027;BME280;57506;50.092;15.804;2023-02-05T12:52:11;101104.06;;;-0.14;62.65
70027;BME280;57506;50.092;15.804;2023-02-05T12:57:45;101115.19;;;0.10;60.19
70027;BME280;57506;50.092;15.804;2023-02-05T13:00:22;101115.81;;;0.15;58.72
70027;BME280;57506;50.092;15.804;2023-02-05T13:05:30;101106.75;;;0.02;53.84
70027;BME280;57506;50.092;15.804;2023-02-05T13:08:02;101103.72;;;0.10;56.16
70027;BME280;57506;50.092;15.804;2023-02-05T13:10:39;101097.16;;;-0.16;54.70
70027;BME280;57506;50.092;15.804;2023-02-05T13:13:12;101095.50;;;-0.02;54.77
70027;BME280;57506;50.092;15.804;2023-02-05T13:15:42;101099.00;;;-0.18;56.07
70027;BME280;57506;50.092;15.804;2023-02-05T13:18:21;101093.09;;;-0.23;56.61
70027;BME280;57506;50.092;15.804;2023-02-05T13:21:06;101097.44;;;-0.22;56.81
70027;BME280;57506;50.092;15.804;2023-02-05T13:24:20;101066.16;;;-0.49;55.43
70027;BME280;57506;50.092;15.804;2023-02-05T13:27:00;101100.66;;;-0.33;55.40
70027;BME280;57506;50.092;15.804;2023-02-05T13:29:47;101101.03;;;-0.23;56.78
70027;BME280;57506;50.092;15.804;2023-02-05T13:32:17;101098.22;;;-0.20;57.66
70027;BME280;57506;50.092;15.804;2023-02-05T13:34:46;101090.72;;;-0.29;57.48
70027;BME280;57506;50.092;15.804;2023-02-05T13:37:28;101099.78;;;-0.33;55.04
70027;BME280;57506;50.092;15.804;2023-02-05T13:42:57;101096.97;;;-0.30;57.14
70027;BME280;57506;50.092;15.804;2023-02-05T13:59:42;101082.63;;;-0.44;61.41
70027;BME280;57506;50.092;15.804;2023-02-05T14:04:59;101075.78;;;-0.48;62.36
70027;BME280;57506;50.092;15.804;2023-02-05T14:07:36;101080.69;;;-0.40;63.05
70027;BME280;57506;50.092;15.804;2023-02-05T14:10:04;101081.84;;;-0.46;61.93
70027;BME280;57506;50.092;15.804;2023-02-05T14:12:36;101077.19;;;-0.41;62.06
70027;BME280;57506;50.092;15.804;2023-02-05T14:22:57;101087.31;;;-0.31;63.52
70027;BME280;57506;50.092;15.804;2023-02-05T14:30:57;101095.19;;;-0.30;63.89
70027;BME280;57506;50.092;15.804;2023-02-05T14:39:05;101078.69;;;-0.52;63.38
70027;BME280;57506;50.092;15.804;2023-02-05T14:44:30;101089.03;;;-0.65;62.39
70027;BME280;57506;50.092;15.804;2023-02-05T14:52:01;101084.47;;;-0.80;64.03
70027;BME280;57506;50.092;15.804;2023-02-05T14:54:48;101073.34;;;-0.87;64.26
70027;BME280;57506;50.092;15.804;2023-02-05T15:19:41;101084.50;;;-1.35;70.78